sensor_id;sensor_type;location;lat;lon;timestamp;temperature;humidity
19200;DHT22;9732;52.498;5.408;2022-08-21T00:01:15;18.80;99.90
19200;DHT22;9732;52.498;5.408;2022-08-21T00:03:44;18.80;99.90
19200;DHT22;9732;52.498;5.408;2022-08-21T00:06:11;18.80;99.90
19200;DHT22;9732;52.498;5.408;2022-08-21T00:08:38;18.80;99.90
19200;DHT22;9732;52.498;5.408;2022-08-21T00:11:05;18.70;99.90
19200;DHT22;9732;52.498;5.408;2022-08-21T00:13:32;18.70;99.90
19200;DHT22;9732;52.498;5.408;2022-08-21T00:15:59;18.60;99.90
19200;DHT22;9732;52.498;5.408;2022-08-21T00:18:26;18.60;99.90
19200;DHT22;9732;52.498;5.408;2022-08-21T00:20:54;18.60;99.90
19200;DHT22;9732;52.498;5.408;2022-08-21T00:23:21;18.60;99.90
19200;DHT22;9732;52.498;5.408;2022-08-21T00:25:48;18.60;99.90
19200;DHT22;9732;52.498;5.408;2022-08-21T00:28:15;18.60;99.90
19200;DHT22;9732;52.498;5.408;2022-08-21T00:30:43;18.60;99.90
19200;DHT22;9732;52.498;5.408;2022-08-21T00:33:11;18.60;99.90
19200;DHT22;9732;52.498;5.408;2022-08-21T00:35:40;18.60;99.90
19200;DHT22;9732;52.498;5.408;2022-08-21T00:38:08;18.60;99.90
19200;DHT22;9732;52.498;5.408;2022-08-21T00:40:39;18.50;99.90
19200;DHT22;9732;52.498;5.408;2022-08-21T00:43:08;18.50;99.90
19200;DHT22;9732;52.498;5.408;2022-08-21T00:45:36;18.40;99.90
19200;DHT22;9732;52.498;5.408;2022-08-21T00:48:03;18.40;99.90
19200;DHT22;9732;52.498;5.408;2022-08-21T00:50:33;18.40;99.90
19200;DHT22;9732;52.498;5.408;2022-08-21T00:53:02;18.40;99.90
19200;DHT22;9732;52.498;5.408;2022-08-21T00:55:31;18.40;99.90
19200;DHT22;9732;52.498;5.408;2022-08-21T00:58:00;18.40;99.90
19200;DHT22;9732;52.498;5.408;2022-08-21T01:00:31;18.40;99.90
19200;DHT22;9732;52.498;5.408;2022-08-21T01:02:59;18.40;99.90
19200;DHT22;9732;52.498;5.408;2022-08-21T01:05:27;18.50;99.90
19200;DHT22;9732;52.498;5.408;2022-08-21T01:07:54;18.50;99.90
19200;DHT22;9732;52.498;5.408;2022-08-21T01:10:22;18.50;99.90
19200;DHT22;9732;52.498;5.408;2022-08-21T01:12:52;18.50;99.90
19200;DHT22;9732;52.498;5.408;2022-08-21T01:15:22;18.60;99.90
19200;DHT22;9732;52.498;5.408;2022-08-21T01:17:51;18.50;99.90
19200;DHT22;9732;52.498;5.408;2022-08-21T01:20:19;18.50;99.90
19200;DHT22;9732;52.498;5.408;2022-08-21T01:22:47;18.50;99.90
19200;DHT22;9732;52.498;5.408;2022-08-21T01:25:16;18.50;99.90
19200;DHT22;9732;52.498;5.408;2022-08-21T01:27:45;18.50;99.90
19200;DHT22;9732;52.498;5.408;2022-08-21T01:30:16;18.50;99.90
19200;DHT22;9732;52.498;5.408;2022-08-21T01:32:44;18.50;99.90
19200;DHT22;9732;52.498;5.408;2022-08-21T01:35:12;18.40;99.90
19200;DHT22;9732;52.498;5.408;2022-08-21T01:37:40;18.40;99.90
19200;DHT22;9732;52.498;5.408;2022-08-21T01:40:10;18.40;99.90
19200;DHT22;9732;52.498;5.408;2022-08-21T01:42:38;18.30;99.90
19200;DHT22;9732;52.498;5.408;2022-08-21T01:45:06;18.30;99.90
19200;DHT22;9732;52.498;5.408;2022-08-21T01:47:33;18.20;99.90
19200;DHT22;9732;52.498;5.408;2022-08-21T01:50:02;18.20;99.90
19200;DHT22;9732;52.498;5.408;2022-08-21T01:52:29;18.20;99.90
19200;DHT22;9732;52.498;5.408;2022-08-21T01:54:56;18.20;99.90
19200;DHT22;9732;52.498;5.408;2022-08-21T01:57:24;18.20;99.90
19200;DHT22;9732;52.498;5.408;2022-08-21T01:59:52;18.20;99.90
19200;DHT22;9732;52.498;5.408;2022-08-21T02:02:19;18.20;99.90
19200;DHT22;9732;52.498;5.408;2022-08-21T02:04:45;18.20;99.90
19200;DHT22;9732;52.498;5.408;2022-08-21T02:07:12;18.10;99.90
19200;DHT22;9732;52.498;5.408;2022-08-21T02:09:39;18.10;99.90
19200;DHT22;9732;52.498;5.408;2022-08-21T02:12:07;18.10;99.90
19200;DHT22;9732;52.498;5.408;2022-08-21T02:14:35;18.10;99.90
19200;DHT22;9732;52.498;5.408;2022-08-21T02:17:03;18.00;99.90
19200;DHT22;9732;52.498;5.408;2022-08-21T02:19:29;18.00;99.90
19200;DHT22;9732;52.498;5.408;2022-08-21T02:21:56;18.00;99.90
19200;DHT22;9732;52.498;5.408;2022-08-21T02:24:23;18.00;99.90
19200;DHT22;9732;52.498;5.408;2022-08-21T02:26:50;18.00;99.90
19200;DHT22;9732;52.498;5.408;2022-08-21T02:29:16;18.10;99.90
19200;DHT22;9732;52.498;5.408;2022-08-21T02:31:44;18.00;99.90
19200;DHT22;9732;52.498;5.408;2022-08-21T02:34:11;18.00;99.90
19200;DHT22;9732;52.498;5.408;2022-08-21T02:36:38;18.00;99.90
19200;DHT22;9732;52.498;5.408;2022-08-21T02:39:04;18.00;99.90
19200;DHT22;9732;52.498;5.408;2022-08-21T02:41:31;18.00;99.90
19200;DHT22;9732;52.498;5.408;2022-08-21T02:43:58;18.00;99.90
19200;DHT22;9732;52.498;5.408;2022-08-21T02:46:24;17.90;99.90
19200;DHT22;9732;52.498;5.408;2022-08-21T02:48:52;17.90;99.90
19200;DHT22;9732;52.498;5.408;2022-08-21T02:51:19;17.90;99.90
19200;DHT22;9732;52.498;5.408;2022-08-21T02:53:48;17.90;99.90
19200;DHT22;9732;52.498;5.408;2022-08-21T02:56:18;17.90;99.90
19200;DHT22;9732;52.498;5.408;2022-08-21T02:58:48;17.90;99.90
19200;DHT22;9732;52.498;5.408;2022-08-21T03:01:16;17.90;99.90
19200;DHT22;9732;52.498;5.408;2022-08-21T03:03:44;17.90;99.90
19200;DHT22;9732;52.498;5.408;2022-08-21T03:06:15;17.90;99.90
19200;DHT22;9732;52.498;5.408;2022-08-21T03:08:42;17.80;99.90
19200;DHT22;9732;52.498;5.408;2022-08-21T03:11:10;17.80;99.90
19200;DHT22;9732;52.498;5.408;2022-08-21T03:13:37;17.80;99.90
19200;DHT22;9732;52.498;5.408;2022-08-21T03:16:05;17.80;99.90
19200;DHT22;9732;52.498;5.408;2022-08-21T03:18:32;17.90;99.90
19200;DHT22;9732;52.498;5.408;2022-08-21T03:20:59;17.80;99.90
19200;DHT22;9732;52.498;5.408;2022-08-21T03:23:27;17.80;99.90
19200;DHT22;9732;52.498;5.408;2022-08-21T03:25:56;17.80;99.90
19200;DHT22;9732;52.498;5.408;2022-08-21T03:28:22;17.70;99.90
19200;DHT22;9732;52.498;5.408;2022-08-21T03:30:51;17.70;99.90
19200;DHT22;9732;52.498;5.408;2022-08-21T03:33:19;17.70;99.90
19200;DHT22;9732;52.498;5.408;2022-08-21T03:35:49;17.60;99.90
19200;DHT22;9732;52.498;5.408;2022-08-21T03:38:17;17.60;99.90
19200;DHT22;9732;52.498;5.408;2022-08-21T03:40:46;17.60;99.90
19200;DHT22;9732;52.498;5.408;2022-08-21T03:43:13;17.60;99.90
19200;DHT22;9732;52.498;5.408;2022-08-21T03:45:39;17.50;99.90
19200;DHT22;9732;52.498;5.408;2022-08-21T03:48:07;17.50;99.90
19200;DHT22;9732;52.498;5.408;2022-08-21T03:50:38;17.50;99.90
19200;DHT22;9732;52.498;5.408;2022-08-21T03:53:05;17.50;99.90
19200;DHT22;9732;52.498;5.408;2022-08-21T03:55:32;17.50;99.90
19200;DHT22;9732;52.498;5.408;2022-08-21T03:58:00;17.50;99.90
19200;DHT22;9732;52.498;5.408;2022-08-21T04:00:27;17.40;99.90
19200;DHT22;9732;52.498;5.408;2022-08-21T04:02:53;17.50;99.90
19200;DHT22;9732;52.498;5.408;2022-08-21T04:05:21;17.50;99.90
19200;DHT22;9732;52.498;5.408;2022-08-21T04:07:54;17.50;99.90
19200;DHT22;9732;52.498;5.408;2022-08-21T04:10:22;17.40;99.90
19200;DHT22;9732;52.498;5.408;2022-08-21T04:12:49;17.40;99.90
19200;DHT22;9732;52.498;5.408;2022-08-21T04:15:18;17.40;99.90
19200;DHT22;9732;52.498;5.408;2022-08-21T04:17:45;17.40;99.90
19200;DHT22;9732;52.498;5.408;2022-08-21T04:20:12;17.40;99.90
19200;DHT22;9732;52.498;5.408;2022-08-21T04:22:38;17.30;99.90
19200;DHT22;9732;52.498;5.408;2022-08-21T04:25:06;17.40;99.90
19200;DHT22;9732;52.498;5.408;2022-08-21T04:27:33;17.30;99.90
19200;DHT22;9732;52.498;5.408;2022-08-21T04:30:00;17.30;99.90
19200;DHT22;9732;52.498;5.408;2022-08-21T04:32:28;17.30;99.90
19200;DHT22;9732;52.498;5.408;2022-08-21T04:34:58;17.30;99.90
19200;DHT22;9732;52.498;5.408;2022-08-21T04:37:26;17.20;99.90
19200;DHT22;9732;52.498;5.408;2022-08-21T04:39:54;17.20;99.90
19200;DHT22;9732;52.498;5.408;2022-08-21T04:42:23;17.20;99.90
19200;DHT22;9732;52.498;5.408;2022-08-21T04:44:50;17.20;99.90
19200;DHT22;9732;52.498;5.408;2022-08-21T04:47:17;17.30;99.90
19200;DHT22;9732;52.498;5.408;2022-08-21T04:49:45;17.30;99.90
19200;DHT22;9732;52.498;5.408;2022-08-21T04:52:14;17.30;99.90
19200;DHT22;9732;52.498;5.408;2022-08-21T04:54:42;17.30;99.90
19200;DHT22;9732;52.498;5.408;2022-08-21T04:57:11;17.30;99.90
19200;DHT22;9732;52.498;5.408;2022-08-21T04:59:40;17.20;99.90
19200;DHT22;9732;52.498;5.408;2022-08-21T05:02:08;17.20;99.90
19200;DHT22;9732;52.498;5.408;2022-08-21T05:04:40;17.20;99.90
19200;DHT22;9732;52.498;5.408;2022-08-21T05:07:12;17.20;99.90
19200;DHT22;9732;52.498;5.408;2022-08-21T05:09:42;17.20;99.90
19200;DHT22;9732;52.498;5.408;2022-08-21T05:12:09;17.20;99.90
19200;DHT22;9732;52.498;5.408;2022-08-21T05:14:36;17.20;99.90
19200;DHT22;9732;52.498;5.408;2022-08-21T05:17:03;17.20;99.90
19200;DHT22;9732;52.498;5.408;2022-08-21T05:19:30;17.10;99.90
19200;DHT22;9732;52.498;5.408;2022-08-21T05:21:57;17.10;99.90
19200;DHT22;9732;52.498;5.408;2022-08-21T05:24:25;17.10;99.90
19200;DHT22;9732;52.498;5.408;2022-08-21T05:26:52;17.10;99.90
19200;DHT22;9732;52.498;5.408;2022-08-21T05:29:19;17.20;99.90
19200;DHT22;9732;52.498;5.408;2022-08-21T05:31:47;17.20;99.90
19200;DHT22;9732;52.498;5.408;2022-08-21T05:34:17;17.20;99.90
19200;DHT22;9732;52.498;5.408;2022-08-21T05:36:44;17.10;99.90
19200;DHT22;9732;52.498;5.408;2022-08-21T05:39:11;17.10;99.90
19200;DHT22;9732;52.498;5.408;2022-08-21T05:41:40;17.10;99.90
19200;DHT22;9732;52.498;5.408;2022-08-21T05:44:07;17.20;99.90
19200;DHT22;9732;52.498;5.408;2022-08-21T05:46:34;17.20;99.90
19200;DHT22;9732;52.498;5.408;2022-08-21T05:49:00;17.20;99.90
19200;DHT22;9732;52.498;5.408;2022-08-21T05:51:27;17.30;99.90
19200;DHT22;9732;52.498;5.408;2022-08-21T05:53:54;17.30;99.90
19200;DHT22;9732;52.498;5.408;2022-08-21T05:56:20;17.30;99.90
19200;DHT22;9732;52.498;5.408;2022-08-21T05:58:48;17.30;99.90
19200;DHT22;9732;52.498;5.408;2022-08-21T06:01:15;17.40;99.90
19200;DHT22;9732;52.498;5.408;2022-08-21T06:03:42;17.30;99.90
19200;DHT22;9732;52.498;5.408;2022-08-21T06:06:09;17.40;99.90
19200;DHT22;9732;52.498;5.408;2022-08-21T06:08:36;17.50;99.90
19200;DHT22;9732;52.498;5.408;2022-08-21T06:11:04;17.50;99.90
19200;DHT22;9732;52.498;5.408;2022-08-21T06:13:31;17.50;99.90
19200;DHT22;9732;52.498;5.408;2022-08-21T06:16:04;17.50;99.90
19200;DHT22;9732;52.498;5.408;2022-08-21T06:18:31;17.60;99.90
19200;DHT22;9732;52.498;5.408;2022-08-21T06:20:58;17.60;99.90
19200;DHT22;9732;52.498;5.408;2022-08-21T06:23:25;17.70;99.90
19200;DHT22;9732;52.498;5.408;2022-08-21T06:25:51;17.70;99.90
19200;DHT22;9732;52.498;5.408;2022-08-21T06:28:18;17.70;99.90
19200;DHT22;9732;52.498;5.408;2022-08-21T06:30:45;17.80;99.90
19200;DHT22;9732;52.498;5.408;2022-08-21T06:33:13;17.90;99.90
19200;DHT22;9732;52.498;5.408;2022-08-21T06:35:40;17.90;99.90
19200;DHT22;9732;52.498;5.408;2022-08-21T06:38:07;17.90;99.90
19200;DHT22;9732;52.498;5.408;2022-08-21T06:40:34;17.90;99.90
19200;DHT22;9732;52.498;5.408;2022-08-21T06:43:06;17.90;99.90
19200;DHT22;9732;52.498;5.408;2022-08-21T06:45:33;17.90;99.90
19200;DHT22;9732;52.498;5.408;2022-08-21T06:48:00;18.00;99.90
19200;DHT22;9732;52.498;5.408;2022-08-21T06:50:28;18.00;99.90
19200;DHT22;9732;52.498;5.408;2022-08-21T06:53:00;18.10;99.90
19200;DHT22;9732;52.498;5.408;2022-08-21T06:55:27;18.10;99.90
19200;DHT22;9732;52.498;5.408;2022-08-21T06:57:54;18.10;99.90
19200;DHT22;9732;52.498;5.408;2022-08-21T07:00:20;18.10;99.90
19200;DHT22;9732;52.498;5.408;2022-08-21T07:02:47;18.20;99.90
19200;DHT22;9732;52.498;5.408;2022-08-21T07:05:14;18.20;99.90
19200;DHT22;9732;52.498;5.408;2022-08-21T07:07:42;18.30;99.90
19200;DHT22;9732;52.498;5.408;2022-08-21T07:10:09;18.30;99.90
19200;DHT22;9732;52.498;5.408;2022-08-21T07:12:36;18.40;99.90
19200;DHT22;9732;52.498;5.408;2022-08-21T07:15:04;18.50;99.90
19200;DHT22;9732;52.498;5.408;2022-08-21T07:17:30;18.60;99.90
19200;DHT22;9732;52.498;5.408;2022-08-21T07:19:57;18.60;99.90
19200;DHT22;9732;52.498;5.408;2022-08-21T07:22:24;18.70;99.90
19200;DHT22;9732;52.498;5.408;2022-08-21T07:24:54;18.70;99.90
19200;DHT22;9732;52.498;5.408;2022-08-21T07:27:21;18.80;99.90
19200;DHT22;9732;52.498;5.408;2022-08-21T07:29:48;18.90;99.90
19200;DHT22;9732;52.498;5.408;2022-08-21T07:32:15;19.00;99.90
19200;DHT22;9732;52.498;5.408;2022-08-21T07:34:42;19.10;99.90
19200;DHT22;9732;52.498;5.408;2022-08-21T07:37:10;19.10;99.90
19200;DHT22;9732;52.498;5.408;2022-08-21T07:39:36;19.20;99.90
19200;DHT22;9732;52.498;5.408;2022-08-21T07:42:04;19.20;99.90
19200;DHT22;9732;52.498;5.408;2022-08-21T07:44:31;19.20;99.90
19200;DHT22;9732;52.498;5.408;2022-08-21T07:47:00;19.30;99.90
19200;DHT22;9732;52.498;5.408;2022-08-21T07:49:27;19.40;99.90
19200;DHT22;9732;52.498;5.408;2022-08-21T07:51:54;19.50;99.90
19200;DHT22;9732;52.498;5.408;2022-08-21T07:54:21;19.60;99.90
19200;DHT22;9732;52.498;5.408;2022-08-21T07:56:48;19.70;99.90
19200;DHT22;9732;52.498;5.408;2022-08-21T07:59:17;19.70;99.90
19200;DHT22;9732;52.498;5.408;2022-08-21T08:01:44;19.90;99.90
19200;DHT22;9732;52.498;5.408;2022-08-21T08:04:10;20.00;99.90
19200;DHT22;9732;52.498;5.408;2022-08-21T08:06:37;20.10;99.90
19200;DHT22;9732;52.498;5.408;2022-08-21T08:09:04;20.00;99.90
19200;DHT22;9732;52.498;5.408;2022-08-21T08:11:30;19.90;99.90
19200;DHT22;9732;52.498;5.408;2022-08-21T08:13:57;20.00;99.90
19200;DHT22;9732;52.498;5.408;2022-08-21T08:16:26;20.00;99.90
19200;DHT22;9732;52.498;5.408;2022-08-21T08:18:53;20.00;99.90
19200;DHT22;9732;52.498;5.408;2022-08-21T08:21:21;20.10;99.90
19200;DHT22;9732;52.498;5.408;2022-08-21T08:23:48;20.30;99.90
19200;DHT22;9732;52.498;5.408;2022-08-21T08:26:15;20.50;99.90
19200;DHT22;9732;52.498;5.408;2022-08-21T08:28:42;20.70;99.90
19200;DHT22;9732;52.498;5.408;2022-08-21T08:31:09;20.90;99.90
19200;DHT22;9732;52.498;5.408;2022-08-21T08:33:38;21.00;99.90
19200;DHT22;9732;52.498;5.408;2022-08-21T08:36:08;21.20;99.90
19200;DHT22;9732;52.498;5.408;2022-08-21T08:38:41;21.30;99.90
19200;DHT22;9732;52.498;5.408;2022-08-21T08:41:11;21.40;99.90
19200;DHT22;9732;52.498;5.408;2022-08-21T08:43:40;21.40;99.90
19200;DHT22;9732;52.498;5.408;2022-08-21T08:46:12;21.40;99.90
19200;DHT22;9732;52.498;5.408;2022-08-21T08:48:47;21.70;99.90
19200;DHT22;9732;52.498;5.408;2022-08-21T08:51:19;21.70;99.90
19200;DHT22;9732;52.498;5.408;2022-08-21T08:53:52;21.70;99.90
19200;DHT22;9732;52.498;5.408;2022-08-21T08:56:25;21.50;99.90
19200;DHT22;9732;52.498;5.408;2022-08-21T08:58:54;21.40;99.90
19200;DHT22;9732;52.498;5.408;2022-08-21T09:01:23;21.20;99.90
19200;DHT22;9732;52.498;5.408;2022-08-21T09:03:51;21.20;99.90
19200;DHT22;9732;52.498;5.408;2022-08-21T09:06:28;21.20;99.90
19200;DHT22;9732;52.498;5.408;2022-08-21T09:09:05;21.60;99.90
19200;DHT22;9732;52.498;5.408;2022-08-21T09:11:41;21.90;99.90
19200;DHT22;9732;52.498;5.408;2022-08-21T09:14:16;22.40;99.90
19200;DHT22;9732;52.498;5.408;2022-08-21T09:16:51;22.60;99.90
19200;DHT22;9732;52.498;5.408;2022-08-21T09:19:36;22.60;99.90
19200;DHT22;9732;52.498;5.408;2022-08-21T09:22:09;22.50;99.90
19200;DHT22;9732;52.498;5.408;2022-08-21T09:24:49;22.30;99.90
19200;DHT22;9732;52.498;5.408;2022-08-21T09:27:19;22.30;99.90
19200;DHT22;9732;52.498;5.408;2022-08-21T09:29:49;22.50;99.90
19200;DHT22;9732;52.498;5.408;2022-08-21T09:32:18;22.60;99.90
19200;DHT22;9732;52.498;5.408;2022-08-21T09:35:00;23.10;99.90
19200;DHT22;9732;52.498;5.408;2022-08-21T09:37:29;23.60;99.90
19200;DHT22;9732;52.498;5.408;2022-08-21T09:39:57;23.80;99.90
19200;DHT22;9732;52.498;5.408;2022-08-21T09:42:26;24.10;99.90
19200;DHT22;9732;52.498;5.408;2022-08-21T09:45:07;24.30;99.90
19200;DHT22;9732;52.498;5.408;2022-08-21T09:47:35;24.30;99.90
19200;DHT22;9732;52.498;5.408;2022-08-21T09:50:14;23.80;99.90
19200;DHT22;9732;52.498;5.408;2022-08-21T09:52:46;23.50;99.90
19200;DHT22;9732;52.498;5.408;2022-08-21T09:55:18;23.10;99.90
19200;DHT22;9732;52.498;5.408;2022-08-21T09:58:00;22.80;99.90
19200;DHT22;9732;52.498;5.408;2022-08-21T10:00:30;22.50;99.90
19200;DHT22;9732;52.498;5.408;2022-08-21T10:03:12;22.40;99.90
19200;DHT22;9732;52.498;5.408;2022-08-21T10:05:54;22.30;99.90
19200;DHT22;9732;52.498;5.408;2022-08-21T10:08:24;22.50;99.90
19200;DHT22;9732;52.498;5.408;2022-08-21T10:10:56;22.80;99.90
19200;DHT22;9732;52.498;5.408;2022-08-21T10:13:32;23.30;99.90
19200;DHT22;9732;52.498;5.408;2022-08-21T10:16:13;24.20;99.90
19200;DHT22;9732;52.498;5.408;2022-08-21T10:18:43;24.70;99.90
19200;DHT22;9732;52.498;5.408;2022-08-21T10:21:21;24.80;99.90
19200;DHT22;9732;52.498;5.408;2022-08-21T10:23:58;24.50;99.90
19200;DHT22;9732;52.498;5.408;2022-08-21T10:26:37;24.30;99.90
19200;DHT22;9732;52.498;5.408;2022-08-21T10:29:16;24.20;99.90
19200;DHT22;9732;52.498;5.408;2022-08-21T10:31:54;24.20;99.90
19200;DHT22;9732;52.498;5.408;2022-08-21T10:34:35;24.90;99.90
19200;DHT22;9732;52.498;5.408;2022-08-21T10:37:16;25.30;99.90
19200;DHT22;9732;52.498;5.408;2022-08-21T10:39:50;25.50;99.90
19200;DHT22;9732;52.498;5.408;2022-08-21T10:42:28;25.70;99.90
19200;DHT22;9732;52.498;5.408;2022-08-21T10:45:07;25.90;99.90
19200;DHT22;9732;52.498;5.408;2022-08-21T10:47:41;26.10;99.90
19200;DHT22;9732;52.498;5.408;2022-08-21T10:50:15;26.00;99.90
19200;DHT22;9732;52.498;5.408;2022-08-21T10:53:14;26.10;99.90
19200;DHT22;9732;52.498;5.408;2022-08-21T10:55:55;26.80;99.90
19200;DHT22;9732;52.498;5.408;2022-08-21T10:58:28;26.60;99.90
19200;DHT22;9732;52.498;5.408;2022-08-21T11:01:00;26.40;99.90
19200;DHT22;9732;52.498;5.408;2022-08-21T11:03:34;26.10;99.90
19200;DHT22;9732;52.498;5.408;2022-08-21T11:06:05;25.60;99.90
19200;DHT22;9732;52.498;5.408;2022-08-21T11:08:38;25.20;99.90
19200;DHT22;9732;52.498;5.408;2022-08-21T11:11:10;24.90;99.90
19200;DHT22;9732;52.498;5.408;2022-08-21T11:13:41;24.70;99.90
19200;DHT22;9732;52.498;5.408;2022-08-21T11:16:14;24.50;99.90
19200;DHT22;9732;52.498;5.408;2022-08-21T11:18:46;24.40;99.90
19200;DHT22;9732;52.498;5.408;2022-08-21T11:21:29;24.70;99.90
19200;DHT22;9732;52.498;5.408;2022-08-21T11:24:03;25.30;99.90
19200;DHT22;9732;52.498;5.408;2022-08-21T11:26:38;25.80;99.90
19200;DHT22;9732;52.498;5.408;2022-08-21T11:29:09;25.90;99.90
19200;DHT22;9732;52.498;5.408;2022-08-21T11:31:51;25.90;99.90
19200;DHT22;9732;52.498;5.408;2022-08-21T11:34:36;25.80;99.90
19200;DHT22;9732;52.498;5.408;2022-08-21T11:37:11;25.60;99.90
19200;DHT22;9732;52.498;5.408;2022-08-21T11:39:51;25.40;99.90
19200;DHT22;9732;52.498;5.408;2022-08-21T11:42:26;25.00;99.90
19200;DHT22;9732;52.498;5.408;2022-08-21T11:47:51;24.60;99.90
19200;DHT22;9732;52.498;5.408;2022-08-21T11:50:23;24.40;99.90
19200;DHT22;9732;52.498;5.408;2022-08-21T11:52:55;24.50;99.90
19200;DHT22;9732;52.498;5.408;2022-08-21T11:55:28;24.40;99.90
19200;DHT22;9732;52.498;5.408;2022-08-21T11:58:00;24.50;99.90
19200;DHT22;9732;52.498;5.408;2022-08-21T12:00:32;24.60;99.90
19200;DHT22;9732;52.498;5.408;2022-08-21T12:03:10;24.60;99.90
19200;DHT22;9732;52.498;5.408;2022-08-21T12:05:39;25.00;99.90
19200;DHT22;9732;52.498;5.408;2022-08-21T12:08:11;25.60;99.90
19200;DHT22;9732;52.498;5.408;2022-08-21T12:10:41;26.50;99.90
19200;DHT22;9732;52.498;5.408;2022-08-21T12:13:11;27.20;99.90
19200;DHT22;9732;52.498;5.408;2022-08-21T12:15:47;27.90;99.90
19200;DHT22;9732;52.498;5.408;2022-08-21T12:18:23;28.40;99.90
19200;DHT22;9732;52.498;5.408;2022-08-21T12:21:02;28.70;99.90
19200;DHT22;9732;52.498;5.408;2022-08-21T12:23:31;28.90;99.90
19200;DHT22;9732;52.498;5.408;2022-08-21T12:26:14;28.80;99.90
19200;DHT22;9732;52.498;5.408;2022-08-21T12:28:44;28.40;99.90
19200;DHT22;9732;52.498;5.408;2022-08-21T12:31:26;28.50;99.90
19200;DHT22;9732;52.498;5.408;2022-08-21T12:33:56;28.70;99.90
19200;DHT22;9732;52.498;5.408;2022-08-21T12:36:39;29.10;99.90
19200;DHT22;9732;52.498;5.408;2022-08-21T12:39:12;29.50;99.90
19200;DHT22;9732;52.498;5.408;2022-08-21T12:41:47;29.80;99.90
19200;DHT22;9732;52.498;5.408;2022-08-21T12:44:16;30.00;99.90
19200;DHT22;9732;52.498;5.408;2022-08-21T12:46:46;30.00;99.90
19200;DHT22;9732;52.498;5.408;2022-08-21T12:49:18;29.70;99.90
19200;DHT22;9732;52.498;5.408;2022-08-21T12:51:55;29.20;99.90
19200;DHT22;9732;52.498;5.408;2022-08-21T12:54:25;28.90;99.90
19200;DHT22;9732;52.498;5.408;2022-08-21T12:56:59;28.90;99.90
19200;DHT22;9732;52.498;5.408;2022-08-21T12:59:26;28.90;99.90
19200;DHT22;9732;52.498;5.408;2022-08-21T13:01:54;28.30;99.90
19200;DHT22;9732;52.498;5.408;2022-08-21T13:04:27;27.90;99.90
19200;DHT22;9732;52.498;5.408;2022-08-21T13:06:58;27.70;99.90
19200;DHT22;9732;52.498;5.408;2022-08-21T13:09:28;27.80;99.90
19200;DHT22;9732;52.498;5.408;2022-08-21T13:11:58;27.80;99.90
19200;DHT22;9732;52.498;5.408;2022-08-21T13:14:30;28.10;99.90
19200;DHT22;9732;52.498;5.408;2022-08-21T13:16:59;28.20;99.90
19200;DHT22;9732;52.498;5.408;2022-08-21T13:19:26;28.40;99.90
19200;DHT22;9732;52.498;5.408;2022-08-21T13:21:55;28.80;99.90
19200;DHT22;9732;52.498;5.408;2022-08-21T13:24:24;29.20;99.90
19200;DHT22;9732;52.498;5.408;2022-08-21T13:26:52;29.50;99.90
19200;DHT22;9732;52.498;5.408;2022-08-21T13:29:22;29.70;99.90
19200;DHT22;9732;52.498;5.408;2022-08-21T13:31:53;30.20;99.90
19200;DHT22;9732;52.498;5.408;2022-08-21T13:34:22;30.50;99.90
19200;DHT22;9732;52.498;5.408;2022-08-21T13:36:54;29.90;99.90
19200;DHT22;9732;52.498;5.408;2022-08-21T13:39:22;29.20;99.90
19200;DHT22;9732;52.498;5.408;2022-08-21T13:41:50;28.60;99.90
19200;DHT22;9732;52.498;5.408;2022-08-21T13:44:21;27.70;99.90
19200;DHT22;9732;52.498;5.408;2022-08-21T13:46:52;27.30;99.90
19200;DHT22;9732;52.498;5.408;2022-08-21T13:49:26;27.20;99.90
19200;DHT22;9732;52.498;5.408;2022-08-21T13:51:55;27.10;99.90
19200;DHT22;9732;52.498;5.408;2022-08-21T13:54:24;27.20;99.90
19200;DHT22;9732;52.498;5.408;2022-08-21T13:56:53;27.00;99.90
19200;DHT22;9732;52.498;5.408;2022-08-21T13:59:27;26.70;99.90
19200;DHT22;9732;52.498;5.408;2022-08-21T14:01:55;26.70;99.90
19200;DHT22;9732;52.498;5.408;2022-08-21T14:04:29;26.60;99.90
19200;DHT22;9732;52.498;5.408;2022-08-21T14:06:57;26.50;99.90
19200;DHT22;9732;52.498;5.408;2022-08-21T14:09:28;26.50;99.90
19200;DHT22;9732;52.498;5.408;2022-08-21T14:11:56;26.30;99.90
19200;DHT22;9732;52.498;5.408;2022-08-21T14:14:27;26.20;99.90
19200;DHT22;9732;52.498;5.408;2022-08-21T14:16:58;26.10;99.90
19200;DHT22;9732;52.498;5.408;2022-08-21T14:19:26;26.00;99.90
19200;DHT22;9732;52.498;5.408;2022-08-21T14:21:53;25.90;99.90
19200;DHT22;9732;52.498;5.408;2022-08-21T14:24:28;25.70;99.90
19200;DHT22;9732;52.498;5.408;2022-08-21T14:27:05;25.50;99.90
19200;DHT22;9732;52.498;5.408;2022-08-21T14:29:36;25.40;99.90
19200;DHT22;9732;52.498;5.408;2022-08-21T14:32:10;25.50;99.90
19200;DHT22;9732;52.498;5.408;2022-08-21T14:34:38;25.50;99.90
19200;DHT22;9732;52.498;5.408;2022-08-21T14:37:05;25.30;99.90
19200;DHT22;9732;52.498;5.408;2022-08-21T14:39:32;25.20;99.90
19200;DHT22;9732;52.498;5.408;2022-08-21T14:41:59;25.10;99.90
19200;DHT22;9732;52.498;5.408;2022-08-21T14:44:26;25.10;99.90
19200;DHT22;9732;52.498;5.408;2022-08-21T14:46:55;25.20;99.90
19200;DHT22;9732;52.498;5.408;2022-08-21T14:49:22;25.10;99.90
19200;DHT22;9732;52.498;5.408;2022-08-21T14:51:49;25.00;99.90
19200;DHT22;9732;52.498;5.408;2022-08-21T14:54:22;24.80;99.90
19200;DHT22;9732;52.498;5.408;2022-08-21T14:56:49;24.70;99.90
19200;DHT22;9732;52.498;5.408;2022-08-21T14:59:16;24.70;99.90
19200;DHT22;9732;52.498;5.408;2022-08-21T15:01:45;24.70;99.90
19200;DHT22;9732;52.498;5.408;2022-08-21T15:04:13;24.80;99.90
19200;DHT22;9732;52.498;5.408;2022-08-21T15:06:40;24.90;99.90
19200;DHT22;9732;52.498;5.408;2022-08-21T15:09:06;25.00;99.90
19200;DHT22;9732;52.498;5.408;2022-08-21T15:11:33;24.90;99.90
19200;DHT22;9732;52.498;5.408;2022-08-21T15:14:05;25.00;99.90
19200;DHT22;9732;52.498;5.408;2022-08-21T15:16:33;24.90;99.90
19200;DHT22;9732;52.498;5.408;2022-08-21T15:19:01;24.80;99.90
19200;DHT22;9732;52.498;5.408;2022-08-21T15:21:29;24.80;99.90
19200;DHT22;9732;52.498;5.408;2022-08-21T15:23:56;24.80;99.90
19200;DHT22;9732;52.498;5.408;2022-08-21T15:26:23;24.70;99.90
19200;DHT22;9732;52.498;5.408;2022-08-21T15:28:50;24.70;99.90
19200;DHT22;9732;52.498;5.408;2022-08-21T15:31:17;24.70;99.90
19200;DHT22;9732;52.498;5.408;2022-08-21T15:33:43;24.60;99.90
19200;DHT22;9732;52.498;5.408;2022-08-21T15:36:10;24.60;99.90
19200;DHT22;9732;52.498;5.408;2022-08-21T15:38:38;24.60;99.90
19200;DHT22;9732;52.498;5.408;2022-08-21T15:41:05;24.50;99.90
19200;DHT22;9732;52.498;5.408;2022-08-21T15:43:37;24.50;99.90
19200;DHT22;9732;52.498;5.408;2022-08-21T15:46:05;24.40;99.90
19200;DHT22;9732;52.498;5.408;2022-08-21T15:48:32;24.50;99.90
19200;DHT22;9732;52.498;5.408;2022-08-21T15:50:59;24.40;99.90
19200;DHT22;9732;52.498;5.408;2022-08-21T15:53:25;24.50;99.90
19200;DHT22;9732;52.498;5.408;2022-08-21T15:55:54;24.40;99.90
19200;DHT22;9732;52.498;5.408;2022-08-21T15:58:21;24.50;99.90
19200;DHT22;9732;52.498;5.408;2022-08-21T16:00:48;24.50;99.90
19200;DHT22;9732;52.498;5.408;2022-08-21T16:03:16;24.40;99.90